Time;durP1;ratioP1;P1;durP2;ratioP2;P2;SDS_P1;SDS_P2;PMS_P1;PMS_P2;Temp;Humidity;BMP_temperature;BMP_pressure;BME280_temperature;BME280_humidity;BME280_pressure;Samples;Min_cycle;Max_cycle;Signal;HPM_P1;HPM_P2
2021/12/14 00:02:56;;;;;;;4.15;2.90;;;7.60;99.90;;;;;;7281963;32;20697;-82
2021/12/14 00:07:01;;;;;;;4.62;3.15;;;7.60;99.90;;;;;;7287978;32;20253;-82
2021/12/14 00:15:15;;;;;;;4.78;3.00;;;7.70;99.90;;;;;;7277049;32;20104;-82
2021/12/14 00:19:18;;;;;;;4.12;2.90;;;7.60;99.90;;;;;;7276861;32;20192;-82
2021/12/14 00:27:45;;;;;;;4.90;2.90;;;7.60;99.90;;;;;;7279238;32;20333;-81
2021/12/14 00:31:48;;;;;;;4.00;2.80;;;7.60;99.90;;;;;;7282782;32;20104;-81
2021/12/14 00:35:51;;;;;;;7.40;3.17;;;7.60;99.90;;;;;;7297490;32;20618;-81
2021/12/14 00:39:55;;;;;;;4.03;2.92;;;7.70;99.90;;;;;;7286440;32;20104;-82
2021/12/14 00:43:58;;;;;;;4.60;2.90;;;7.70;99.90;;;;;;7297801;32;20097;-80
2021/12/14 00:48:00;;;;;;;5.05;2.90;;;7.70;99.90;;;;;;7296326;32;20127;-81
2021/12/14 00:52:04;;;;;;;5.40;2.55;;;7.60;99.90;;;;;;7279236;32;20143;-81
2021/12/14 00:56:09;;;;;;;4.05;2.60;;;7.60;99.90;;;;;;7267562;32;20199;-81
2021/12/14 01:00:16;;;;;;;4.20;2.85;;;7.70;99.90;;;;;;7285355;32;20116;-81
2021/12/14 01:04:28;;;;;;;5.37;3.35;;;7.70;99.90;;;;;;7274846;32;20206;-81
2021/12/14 01:08:35;;;;;;;4.20;2.85;;;7.70;99.90;;;;;;7282130;32;20135;-81
2021/12/14 01:12:53;;;;;;;;;;;7.70;99.90;;;;;;7277822;32;20112;-80
2021/12/14 01:17:10;;;;;;;5.85;3.30;;;7.60;99.90;;;;;;7287311;32;20023;-81
2021/12/14 01:21:44;;;;;;;;;;;7.60;99.90;;;;;;7277071;32;20125;-80
2021/12/14 01:25:51;;;;;;;3.55;2.72;;;7.50;99.90;;;;;;7290479;32;20125;-82
2021/12/14 01:29:55;;;;;;;4.57;3.25;;;7.40;99.90;;;;;;7279430;32;20193;-80
2021/12/14 01:34:06;;;;;;;5.20;2.60;;;7.50;99.90;;;;;;7274013;32;20500;-80
2021/12/14 01:38:21;;;;;;;4.82;2.85;;;7.50;99.90;;;;;;7278054;32;20240;-80
2021/12/14 01:42:37;;;;;;;4.82;2.85;;;7.60;99.90;;;;;;7289179;32;20180;-80
2021/12/14 01:46:45;;;;;;;7.30;3.33;;;7.60;99.90;;;;;;7265398;32;20165;-81
2021/12/14 01:50:53;;;;;;;5.65;2.65;;;7.50;99.90;;;;;;7281101;32;20116;-82
2021/12/14 01:55:06;;;;;;;4.85;3.03;;;7.50;99.90;;;;;;7285902;32;20108;-81
2021/12/14 01:59:15;;;;;;;5.50;3.15;;;7.50;99.90;;;;;;7277030;32;20211;-81
2021/12/14 02:03:17;;;;;;;6.90;3.37;;;7.50;99.90;;;;;;7275268;32;20128;-82
2021/12/14 02:07:23;;;;;;;7.97;3.95;;;7.60;99.90;;;;;;7286725;32;20128;-81
2021/12/14 02:11:25;;;;;;;5.25;3.37;;;7.60;99.90;;;;;;7278300;32;20163;-81
2021/12/14 02:15:37;;;;;;;8.38;3.62;;;7.60;99.90;;;;;;7287157;32;20134;-81
2021/12/14 02:19:39;;;;;;;6.90;3.72;;;7.50;99.90;;;;;;7283684;32;20138;-82
2021/12/14 02:23:50;;;;;;;6.10;3.95;;;7.70;99.90;;;;;;7285853;32;20162;-82
2021/12/14 02:27:53;;;;;;;5.45;3.60;;;7.80;99.90;;;;;;7283838;32;20136;-82
2021/12/14 02:32:15;;;;;;;7.00;4.50;;;7.70;99.90;;;;;;7282633;32;20203;-82
2021/12/14 02:36:33;;;;;;;7.87;4.10;;;7.80;99.90;;;;;;7286665;32;20506;-82
2021/12/14 02:40:57;;;;;;;5.95;3.40;;;7.70;99.90;;;;;;7286728;32;20131;-82
2021/12/14 02:45:00;;;;;;;10.50;4.43;;;7.70;99.90;;;;;;7260965;32;20123;-82
2021/12/14 02:49:07;;;;;;;7.20;3.87;;;7.60;99.90;;;;;;7281747;32;20190;-82
2021/12/14 02:53:12;;;;;;;8.70;4.57;;;7.60;99.90;;;;;;7257117;32;20242;-81
2021/12/14 02:57:19;;;;;;;7.35;3.72;;;7.70;99.90;;;;;;7287732;32;20140;-81
2021/12/14 03:01:21;;;;;;;;;;;7.70;99.90;;;;;;7301353;27;20275;-57
2021/12/14 03:05:27;;;;;;;6.53;4.65;;;7.60;99.90;;;;;;7292116;32;20027;-57
2021/12/14 03:09:53;;;;;;;9.52;4.57;;;7.60;99.90;;;;;;7298274;32;20144;-57
2021/12/14 03:13:55;;;;;;;9.88;5.32;;;7.60;99.90;;;;;;7315831;32;20128;-59
2021/12/14 03:18:01;;;;;;;12.00;5.82;;;7.70;99.90;;;;;;7296820;32;20139;-58
2021/12/14 03:22:36;;;;;;;10.05;5.90;;;7.60;99.90;;;;;;7291788;32;21259;-59
2021/12/14 03:26:43;;;;;;;10.50;6.37;;;7.50;99.90;;;;;;7300472;32;20116;-59
2021/12/14 03:30:47;;;;;;;;;;;7.40;99.90;;;;;;7300823;32;20116;-59
2021/12/14 03:34:50;;;;;;;12.68;6.32;;;7.50;99.90;;;;;;7295932;32;20023;-59
2021/12/14 03:39:03;;;;;;;12.70;6.37;;;7.50;99.90;;;;;;7295137;32;20229;-58
2021/12/14 03:43:06;;;;;;;11.48;6.70;;;7.50;99.90;;;;;;7301099;32;20111;-59
2021/12/14 03:47:12;;;;;;;17.87;8.20;;;7.50;99.90;;;;;;7303460;32;20116;-58
2021/12/14 03:51:19;;;;;;;14.13;7.80;;;7.50;99.90;;;;;;7297777;32;20124;-58
2021/12/14 03:55:32;;;;;;;13.52;8.05;;;7.50;99.90;;;;;;7303763;32;20231;-59
2021/12/14 03:59:35;;;;;;;19.48;8.55;;;7.60;99.90;;;;;;7289365;32;20108;-59
2021/12/14 04:03:39;;;;;;;15.90;8.60;;;7.70;99.90;;;;;;7307449;32;20207;-58
2021/12/14 04:07:44;;;;;;;17.58;9.38;;;7.60;99.90;;;;;;7301673;32;20206;-58
2021/12/14 04:11:46;;;;;;;16.75;9.75;;;7.60;99.90;;;;;;7317560;32;20546;-58
2021/12/14 04:15:50;;;;;;;18.15;9.20;;;7.60;99.90;;;;;;7302304;32;20112;-58
2021/12/14 04:19:52;;;;;;;17.67;9.95;;;7.60;99.90;;;;;;7296080;32;20661;-58
2021/12/14 04:23:54;;;;;;;17.80;10.40;;;7.50;99.90;;;;;;7300860;32;20104;-58
2021/12/14 04:27:58;;;;;;;18.23;10.65;;;7.40;99.90;;;;;;7298422;32;20111;-58
2021/12/14 04:32:01;;;;;;;23.85;10.88;;;7.40;99.90;;;;;;7292441;32;20630;-58
2021/12/14 04:36:09;;;;;;;22.45;11.93;;;7.40;99.90;;;;;;7297607;32;20116;-58
2021/12/14 04:40:25;;;;;;;22.85;10.02;;;7.30;99.90;;;;;;7304715;32;20108;-58
2021/12/14 04:53:10;;;;;;;21.23;10.88;;;7.30;99.90;;;;;;7304278;32;20171;-58
2021/12/14 04:57:31;;;;;;;19.10;11.02;;;7.30;99.90;;;;;;7283502;32;20270;-59
2021/12/14 05:01:38;;;;;;;23.25;11.55;;;7.30;99.90;;;;;;7298219;32;20237;-58
2021/12/14 05:05:47;;;;;;;;;;;7.30;99.90;;;;;;7297256;32;20132;-58
2021/12/14 05:09:50;;;;;;;22.30;12.48;;;7.30;99.90;;;;;;7304638;32;20026;-59
2021/12/14 05:14:03;;;;;;;21.73;11.18;;;7.20;99.90;;;;;;7307216;32;20213;-58
2021/12/14 05:18:10;;;;;;;26.50;11.93;;;7.20;99.90;;;;;;7299282;32;20131;-58
2021/12/14 05:22:18;;;;;;;24.17;12.95;;;7.30;99.90;;;;;;7298074;32;20853;-59
2021/12/14 05:26:20;;;;;;;25.80;12.35;;;7.20;99.90;;;;;;7301191;32;20230;-59
2021/12/14 05:30:37;;;;;;;26.55;11.43;;;7.20;99.90;;;;;;7295280;32;20270;-58
2021/12/14 05:34:39;;;;;;;25.88;13.13;;;7.20;99.90;;;;;;7292859;32;20779;-58
2021/12/14 05:43:07;;;;;;;;;;;7.20;99.90;;;;;;7301868;32;20107;-59
2021/12/14 05:47:12;;;;;;;24.58;12.52;;;7.20;99.90;;;;;;7292285;32;20433;-59
2021/12/14 05:51:15;;;;;;;22.20;11.98;;;7.20;99.90;;;;;;7295383;32;20472;-59
2021/12/14 05:55:24;;;;;;;20.70;11.35;;;7.10;99.90;;;;;;7306413;32;20140;-58
2021/12/14 05:59:30;;;;;;;21.12;12.40;;;7.20;99.90;;;;;;7300206;32;20104;-59
2021/12/14 06:03:41;;;;;;;22.08;12.57;;;7.10;99.90;;;;;;7305943;32;20562;-59
2021/12/14 06:07:44;;;;;;;21.27;11.32;;;7.20;99.90;;;;;;7291861;32;20127;-59
2021/12/14 06:11:48;;;;;;;21.48;11.68;;;7.10;99.90;;;;;;7301858;32;20132;-59
2021/12/14 06:15:50;;;;;;;19.95;12.13;;;7.10;99.90;;;;;;7295745;32;20528;-58
2021/12/14 06:19:55;;;;;;;23.25;12.70;;;7.20;99.90;;;;;;7306085;32;20130;-58
2021/12/14 06:24:08;;;;;;;20.35;11.27;;;7.10;99.90;;;;;;7301039;32;20099;-59
2021/12/14 06:28:09;;;;;;;19.65;11.23;;;7.20;99.90;;;;;;7291679;32;20139;-58
2021/12/14 06:32:14;;;;;;;18.42;9.52;;;7.30;99.90;;;;;;7297191;32;20742;-59
2021/12/14 06:36:48;;;;;;;19.12;10.13;;;7.30;99.90;;;;;;7292068;32;20421;-59
2021/12/14 06:40:58;;;;;;;17.35;9.80;;;7.30;99.90;;;;;;7292462;32;20150;-59
2021/12/14 06:45:08;;;;;;;15.90;9.82;;;7.30;99.90;;;;;;7300286;32;20104;-59
2021/12/14 06:49:13;;;;;;;17.55;9.85;;;7.30;99.90;;;;;;7295471;32;20242;-58
2021/12/14 06:53:17;;;;;;;14.87;9.48;;;7.40;99.90;;;;;;7306308;32;20122;-59
2021/12/14 06:57:20;;;;;;;18.23;10.75;;;7.40;99.90;;;;;;7306621;32;20179;-59
2021/12/14 07:01:36;;;;;;;17.08;9.98;;;7.40;99.90;;;;;;7288236;32;20225;-59
2021/12/14 07:05:40;;;;;;;17.55;10.65;;;7.40;99.90;;;;;;7305236;32;20591;-59
2021/12/14 07:09:46;;;;;;;17.48;9.85;;;7.40;99.90;;;;;;7300307;32;20738;-59
2021/12/14 07:13:48;;;;;;;15.98;9.32;;;7.40;99.90;;;;;;7294584;32;20119;-59
2021/12/14 07:18:00;;;;;;;19.15;10.57;;;7.30;99.90;;;;;;7295759;32;20617;-60
2021/12/14 07:22:02;;;;;;;17.52;10.38;;;7.40;99.90;;;;;;7296625;32;20221;-58
2021/12/14 07:26:12;;;;;;;17.67;10.73;;;7.40;99.90;;;;;;7299515;32;20124;-60
2021/12/14 07:30:19;;;;;;;15.30;9.35;;;7.40;99.90;;;;;;7297651;32;20532;-59
2021/12/14 07:34:21;;;;;;;16.83;9.90;;;7.30;99.90;;;;;;7308077;32;20123;-58
2021/12/14 07:38:40;;;;;;;15.40;10.02;;;7.40;99.90;;;;;;7305172;32;20183;-59
2021/12/14 07:42:42;;;;;;;19.30;10.95;;;7.40;99.90;;;;;;7303343;32;20170;-59
2021/12/14 07:46:51;;;;;;;16.23;10.70;;;7.40;99.90;;;;;;7236645;32;20206;-60
2021/12/14 07:50:56;;;;;;;17.65;10.85;;;7.40;99.90;;;;;;7293903;32;20248;-59
2021/12/14 07:55:04;;;;;;;17.98;10.20;;;7.40;99.90;;;;;;7287786;32;20111;-59
2021/12/14 07:59:23;;;;;;;17.45;10.50;;;7.30;99.90;;;;;;7286038;32;20520;-59
2021/12/14 08:03:32;;;;;;;16.23;10.20;;;7.30;99.90;;;;;;7297897;32;20115;-59
2021/12/14 08:07:41;;;;;;;17.02;10.38;;;7.40;99.90;;;;;;7296274;32;20221;-59
2021/12/14 08:11:49;;;;;;;15.40;10.30;;;7.40;99.90;;;;;;7303135;32;20511;-59
2021/12/14 08:15:58;;;;;;;15.98;10.98;;;7.40;99.90;;;;;;7303190;32;20100;-59
2021/12/14 08:20:00;;;;;;;16.50;10.00;;;7.50;99.90;;;;;;7300062;32;20157;-59
2021/12/14 08:24:21;;;;;;;16.73;10.63;;;7.50;99.90;;;;;;7289757;32;20703;-59
2021/12/14 08:28:24;;;;;;;17.15;10.40;;;7.50;99.90;;;;;;7293609;32;20195;-59
2021/12/14 08:32:43;;;;;;;16.10;9.98;;;7.50;99.90;;;;;;7296772;32;20104;-60
2021/12/14 08:36:50;;;;;;;15.82;10.15;;;7.50;99.90;;;;;;7295217;32;20147;-59
2021/12/14 08:40:58;;;;;;;17.35;10.98;;;7.50;99.90;;;;;;7295189;32;20536;-59
2021/12/14 08:45:04;;;;;;;16.73;9.98;;;7.50;99.90;;;;;;7296002;32;20104;-59
2021/12/14 08:49:07;;;;;;;15.90;10.43;;;7.50;99.90;;;;;;7295570;32;20101;-60
2021/12/14 08:53:10;;;;;;;17.80;10.88;;;7.50;99.90;;;;;;7293385;32;20132;-59
2021/12/14 08:57:16;;;;;;;17.23;11.07;;;7.60;99.90;;;;;;7292588;32;20206;-59
2021/12/14 09:01:21;;;;;;;19.48;12.10;;;7.50;99.90;;;;;;7294971;32;20132;-59
2021/12/14 09:05:40;;;;;;;21.77;12.18;;;7.70;99.90;;;;;;7293708;32;20225;-59
2021/12/14 09:09:42;;;;;;;19.40;12.18;;;7.70;99.90;;;;;;7288011;32;20123;-60
2021/12/14 09:13:44;;;;;;;18.27;12.18;;;7.70;99.90;;;;;;7292999;32;20209;-59
2021/12/14 09:17:47;;;;;;;17.60;11.60;;;7.60;99.90;;;;;;7297650;32;20121;-59
2021/12/14 09:21:51;;;;;;;20.45;12.82;;;7.60;99.90;;;;;;7288860;32;20215;-59
2021/12/14 09:25:54;;;;;;;19.02;11.90;;;7.60;99.90;;;;;;7288752;32;20654;-59
2021/12/14 09:29:57;;;;;;;19.87;12.55;;;7.70;99.90;;;;;;7294092;32;20218;-59
2021/12/14 09:34:00;;;;;;;21.35;13.65;;;7.70;99.90;;;;;;7291462;32;20618;-59
2021/12/14 09:38:05;;;;;;;24.27;12.88;;;7.70;99.90;;;;;;7291491;32;20472;-59
2021/12/14 09:42:12;;;;;;;19.98;13.02;;;7.80;99.90;;;;;;7288298;32;20139;-59
2021/12/14 09:46:16;;;;;;;22.08;13.18;;;7.80;99.90;;;;;;7288755;32;20261;-59
2021/12/14 09:50:30;;;;;;;21.90;13.60;;;7.80;99.90;;;;;;7299210;32;20130;-59
2021/12/14 09:54:32;;;;;;;24.37;14.85;;;7.80;99.90;;;;;;7303580;32;20136;-59
2021/12/14 09:58:44;;;;;;;23.15;14.20;;;7.80;99.90;;;;;;7298106;32;20176;-59
2021/12/14 10:02:52;;;;;;;23.70;15.35;;;7.80;99.90;;;;;;7291454;32;20214;-59
2021/12/14 10:06:54;;;;;;;24.92;15.23;;;8.00;99.90;;;;;;7295663;32;20199;-59
2021/12/14 10:11:11;;;;;;;23.20;15.73;;;7.90;99.90;;;;;;7284374;32;20109;-59
2021/12/14 10:15:22;;;;;;;22.60;14.70;;;8.00;99.90;;;;;;7287979;32;20104;-60
2021/12/14 10:19:29;;;;;;;21.65;14.63;;;8.00;99.90;;;;;;7289307;32;20187;-59
2021/12/14 10:23:34;;;;;;;21.02;14.80;;;8.10;99.90;;;;;;7289579;32;20123;-59
2021/12/14 10:27:38;;;;;;;24.58;14.85;;;8.10;99.90;;;;;;7295728;32;20115;-59
2021/12/14 10:31:49;;;;;;;21.85;14.23;;;8.10;99.90;;;;;;7292182;32;20104;-59
2021/12/14 10:35:56;;;;;;;23.83;14.80;;;8.10;99.90;;;;;;7288635;32;20230;-59
2021/12/14 10:44:20;;;;;;;25.48;14.77;;;8.10;99.90;;;;;;7292665;32;20219;-59
2021/12/14 10:48:29;;;;;;;19.77;13.05;;;8.10;99.90;;;;;;7288742;32;20108;-59
2021/12/14 10:52:32;;;;;;;24.92;13.88;;;8.30;99.90;;;;;;7293685;32;20202;-59
2021/12/14 10:56:40;;;;;;;23.20;13.48;;;8.20;99.90;;;;;;7298147;32;20586;-60
2021/12/14 11:00:50;;;;;;;22.23;14.05;;;8.10;99.90;;;;;;7292123;32;20316;-59
2021/12/14 11:04:57;;;;;;;23.77;14.98;;;8.10;99.90;;;;;;7292102;32;20167;-59
2021/12/14 11:13:12;;;;;;;21.50;13.50;;;8.30;99.90;;;;;;7290342;32;20201;-59
2021/12/14 11:21:36;;;;;;;21.70;13.57;;;8.30;99.90;;;;;;7296388;32;20146;-59
2021/12/14 11:25:43;;;;;;;20.67;12.73;;;8.40;99.90;;;;;;7293581;32;20132;-58
2021/12/14 11:29:50;;;;;;;21.05;13.10;;;8.40;99.90;;;;;;7289510;32;20485;-58
2021/12/14 11:34:02;;;;;;;25.27;13.35;;;8.40;99.90;;;;;;7294264;32;20616;-59
2021/12/14 11:38:12;;;;;;;25.40;14.90;;;8.50;99.90;;;;;;7297140;32;20284;-58
2021/12/14 11:42:23;;;;;;;21.83;12.88;;;8.50;99.90;;;;;;7291844;32;20132;-58
2021/12/14 11:46:27;;;;;;;22.48;13.77;;;8.60;99.90;;;;;;7290148;32;20127;-58
2021/12/14 11:50:35;;;;;;;19.98;12.45;;;8.60;99.90;;;;;;7294218;32;20112;-58
2021/12/14 11:54:46;;;;;;;23.83;14.55;;;8.50;99.90;;;;;;7287207;32;20344;-58
2021/12/14 11:58:54;;;;;;;25.20;14.07;;;8.50;99.90;;;;;;7289343;32;20215;-58
2021/12/14 12:02:56;;;;;;;21.70;13.48;;;8.50;99.90;;;;;;7271494;32;20096;-59
2021/12/14 12:11:18;;;;;;;23.73;14.00;;;8.50;99.90;;;;;;7290160;32;20563;-58
2021/12/14 12:15:23;;;;;;;23.87;14.70;;;8.60;99.90;;;;;;7293720;32;20104;-58
2021/12/14 12:19:29;;;;;;;24.00;13.88;;;8.50;99.90;;;;;;7297204;32;20281;-59
2021/12/14 12:23:33;;;;;;;23.65;13.65;;;8.40;99.90;;;;;;7288145;32;20223;-59
2021/12/14 12:28:06;;;;;;;24.90;14.90;;;8.50;99.90;;;;;;7296195;32;20694;-59
2021/12/14 12:32:17;;;;;;;23.50;14.20;;;8.60;99.90;;;;;;7294898;32;20100;-59
2021/12/14 12:36:32;;;;;;;23.87;14.75;;;8.60;99.90;;;;;;7302209;32;20108;-58
2021/12/14 12:40:47;;;;;;;24.27;14.75;;;8.60;99.90;;;;;;7292221;32;20210;-59
2021/12/14 12:44:49;;;;;;;22.45;13.98;;;8.60;99.90;;;;;;7297821;32;20108;-59
2021/12/14 12:49:12;;;;;;;24.15;14.80;;;8.70;99.90;;;;;;7298124;32;20103;-59
2021/12/14 12:53:23;;;;;;;22.55;14.48;;;8.80;99.90;;;;;;7291672;32;20108;-58
2021/12/14 12:57:33;;;;;;;21.05;13.77;;;8.80;99.90;;;;;;7296625;32;20206;-59
2021/12/14 13:01:35;;;;;;;20.98;13.20;;;8.90;99.90;;;;;;7294012;32;20214;-59
2021/12/14 13:05:56;;;;;;;21.25;13.07;;;9.00;99.90;;;;;;7295187;32;20122;-59
2021/12/14 13:09:59;;;;;;;20.60;13.77;;;9.00;99.90;;;;;;7300581;32;20104;-59
2021/12/14 13:14:12;;;;;;;20.80;13.30;;;9.00;99.90;;;;;;7301729;32;20123;-60
2021/12/14 13:18:25;;;;;;;21.35;13.88;;;9.00;99.90;;;;;;7297455;32;20103;-59
2021/12/14 13:22:27;;;;;;;24.77;13.77;;;9.10;99.90;;;;;;7297797;32;20133;-58
2021/12/14 13:26:40;;;;;;;27.02;15.10;;;9.10;99.90;;;;;;7289138;32;20125;-58
2021/12/14 13:30:43;;;;;;;25.37;14.02;;;9.00;99.90;;;;;;7303550;32;20112;-58
2021/12/14 13:34:58;;;;;;;20.62;13.07;;;9.00;99.90;;;;;;7296020;32;20706;-59
2021/12/14 13:39:00;;;;;;;23.00;13.45;;;8.90;99.90;;;;;;7302139;32;20099;-59
2021/12/14 13:43:11;;;;;;;23.35;13.73;;;8.90;99.90;;;;;;7296260;32;20163;-59
2021/12/14 13:47:13;;;;;;;24.48;14.60;;;9.00;99.90;;;;;;7298672;32;20104;-59
2021/12/14 13:51:18;;;;;;;22.27;13.90;;;9.00;99.90;;;;;;7296092;32;20622;-59
2021/12/14 13:55:32;;;;;;;20.37;12.73;;;9.00;99.90;;;;;;7297718;32;20499;-59
2021/12/14 13:59:33;;;;;;;20.83;14.13;;;9.10;99.90;;;;;;7296195;32;20113;-59
2021/12/14 14:03:40;;;;;;;22.30;13.35;;;9.10;99.90;;;;;;7288992;32;20195;-59
2021/12/14 14:07:43;;;;;;;20.83;13.35;;;9.10;99.90;;;;;;7296761;32;20132;-58
2021/12/14 14:11:55;;;;;;;21.25;12.63;;;9.10;99.90;;;;;;7297739;32;20118;-58
2021/12/14 14:15:58;;;;;;;20.92;13.57;;;9.10;99.90;;;;;;7302400;32;20104;-58
2021/12/14 14:20:08;;;;;;;21.33;13.18;;;9.10;99.90;;;;;;7304149;32;20223;-58
2021/12/14 14:24:31;;;;;;;23.08;13.18;;;8.90;99.90;;;;;;7295861;32;20657;-58
2021/12/14 14:28:46;;;;;;;22.35;13.20;;;9.00;99.90;;;;;;7299268;32;20484;-59
2021/12/14 14:33:27;;;;;;;20.55;11.75;;;9.00;99.90;;;;;;7294481;32;20097;-58
2021/12/14 14:37:36;;;;;;;21.37;12.95;;;9.00;99.90;;;;;;7288364;32;20100;-59
2021/12/14 14:41:45;;;;;;;23.08;12.25;;;8.90;99.90;;;;;;7293247;32;20733;-58
2021/12/14 14:45:46;;;;;;;21.12;12.13;;;8.80;99.90;;;;;;7285653;32;20137;-59
2021/12/14 14:49:54;;;;;;;22.37;13.10;;;8.80;99.90;;;;;;7303600;32;20847;-59
2021/12/14 14:53:56;;;;;;;22.45;12.20;;;8.70;99.90;;;;;;7289280;32;20195;-58
2021/12/14 14:58:01;;;;;;;26.48;13.90;;;8.80;99.90;;;;;;7291697;32;20096;-58
2021/12/14 15:02:04;;;;;;;19.73;11.93;;;8.70;99.90;;;;;;7297381;32;20110;-58
2021/12/14 15:06:27;;;;;;;18.00;11.52;;;8.70;99.90;;;;;;7288903;32;20768;-58
2021/12/14 15:11:07;;;;;;;21.80;12.40;;;8.70;99.90;;;;;;7291895;32;20100;-58
2021/12/14 15:15:14;;;;;;;18.87;11.45;;;8.70;99.90;;;;;;7284626;32;20640;-58
2021/12/14 15:19:20;;;;;;;21.35;11.50;;;8.60;99.90;;;;;;7291039;32;20245;-58
2021/12/14 15:23:24;;;;;;;21.73;12.82;;;8.50;99.90;;;;;;7291537;32;20241;-59
2021/12/14 15:27:33;;;;;;;23.77;12.02;;;8.50;99.90;;;;;;7291521;32;20265;-58
2021/12/14 15:31:35;;;;;;;23.10;11.32;;;8.60;99.90;;;;;;7292156;32;20742;-58
2021/12/14 15:35:58;;;;;;;18.48;11.40;;;8.60;99.90;;;;;;7289859;32;20200;-59
2021/12/14 15:40:00;;;;;;;21.33;10.93;;;8.50;99.90;;;;;;7291207;32;20099;-59
2021/12/14 15:44:17;;;;;;;21.85;12.35;;;8.60;99.90;;;;;;7291861;32;20264;-59
2021/12/14 15:48:34;;;;;;;20.23;11.27;;;8.50;99.90;;;;;;7291237;32;20104;-58
2021/12/14 15:52:36;;;;;;;20.73;12.15;;;8.60;99.90;;;;;;7289393;32;20259;-59
2021/12/14 15:56:40;;;;;;;20.17;11.98;;;8.50;99.90;;;;;;7290113;32;20195;-59
2021/12/14 16:00:43;;;;;;;26.70;11.25;;;8.50;99.90;;;;;;7287779;32;20123;-59
2021/12/14 16:04:53;;;;;;;23.33;12.50;;;8.40;99.90;;;;;;7284146;32;20191;-58
2021/12/14 16:08:55;;;;;;;23.00;10.70;;;8.40;99.90;;;;;;7287516;32;20203;-58
2021/12/14 16:17:24;;;;;;;22.60;11.88;;;8.30;99.90;;;;;;7293551;32;20131;-58
2021/12/14 16:21:27;;;;;;;21.12;11.75;;;8.50;99.90;;;;;;7284606;32;20244;-60
2021/12/14 16:25:31;;;;;;;18.62;11.50;;;8.50;99.90;;;;;;7345734;26;20115;31
2021/12/14 16:29:36;;;;;;;22.10;12.30;;;8.50;99.90;;;;;;7187853;32;20456;-58
2021/12/14 16:33:40;;;;;;;19.62;11.05;;;8.40;99.90;;;;;;7192887;32;20120;-58
2021/12/14 16:37:42;;;;;;;20.92;11.80;;;8.40;99.90;;;;;;7196870;32;20131;-58
2021/12/14 16:41:49;;;;;;;21.60;12.13;;;8.50;99.90;;;;;;7187418;32;20176;-58
2021/12/14 16:45:54;;;;;;;20.62;11.30;;;8.50;99.90;;;;;;7243209;27;20097;-82
2021/12/14 16:50:35;;;;;;;19.65;12.05;;;8.40;99.90;;;;;;7234009;32;20105;-82
2021/12/14 16:54:43;;;;;;;19.45;12.52;;;8.40;99.90;;;;;;7238953;32;20467;-82
2021/12/14 16:58:46;;;;;;;;;;;8.40;99.90;;;;;;7257610;32;20133;-83
2021/12/14 17:02:48;;;;;;;20.12;11.77;;;8.50;99.90;;;;;;7258599;32;20072;-84
2021/12/14 17:06:53;;;;;;;20.20;12.02;;;8.40;99.90;;;;;;7252586;32;20227;-84
2021/12/14 17:11:03;;;;;;;20.67;12.52;;;8.30;99.90;;;;;;7229886;32;20317;-83
2021/12/14 17:15:07;;;;;;;22.15;12.15;;;8.30;99.90;;;;;;7240115;32;20140;-83
2021/12/14 17:19:18;;;;;;;24.17;12.50;;;8.30;99.90;;;;;;7266915;32;20113;-82
2021/12/14 17:23:25;;;;;;;24.17;12.27;;;8.40;99.90;;;;;;7251457;32;20128;-83
2021/12/14 17:27:29;;;;;;;;;;;8.40;99.90;;;;;;7257204;32;20300;-80
2021/12/14 17:31:37;;;;;;;22.85;12.90;;;8.30;99.90;;;;;;7265095;32;20438;-82
2021/12/14 17:35:40;;;;;;;19.25;12.52;;;8.20;99.90;;;;;;7250206;32;20205;-83
2021/12/14 17:39:50;;;;;;;20.50;14.00;;;8.20;99.90;;;;;;7239346;32;20124;-83
2021/12/14 17:44:11;;;;;;;23.08;14.70;;;8.20;99.90;;;;;;7251393;32;20298;-82
2021/12/14 17:48:20;;;;;;;29.08;14.18;;;8.10;99.90;;;;;;7239288;32;20211;-83
2021/12/14 17:52:27;;;;;;;29.83;15.10;;;8.00;99.90;;;;;;7264790;32;20174;-83
2021/12/14 17:56:29;;;;;;;25.33;14.32;;;8.00;99.90;;;;;;7254289;32;20311;-82
2021/12/14 18:00:36;;;;;;;24.30;13.15;;;8.00;99.90;;;;;;7248705;32;20120;-83
2021/12/14 18:04:39;;;;;;;;;;;8.00;99.90;;;;;;7235520;32;20837;-81
2021/12/14 18:08:45;;;;;;;24.98;14.02;;;8.00;99.90;;;;;;7253399;32;20427;-81
2021/12/14 18:12:50;;;;;;;24.37;14.90;;;8.10;99.90;;;;;;7265033;32;20207;-82
2021/12/14 18:16:57;;;;;;;23.65;13.25;;;8.00;99.90;;;;;;7260229;32;20850;-83
2021/12/14 18:21:00;;;;;;;27.70;14.50;;;8.00;99.90;;;;;;7251123;32;20207;-82
2021/12/14 18:25:10;;;;;;;23.90;13.50;;;8.00;99.90;;;;;;7254629;32;20139;-83
2021/12/14 18:29:15;;;;;;;24.50;14.55;;;8.10;99.90;;;;;;7242362;32;20188;-82
2021/12/14 18:33:17;;;;;;;21.92;14.38;;;8.10;99.90;;;;;;7229773;32;20188;-81
2021/12/14 18:37:28;;;;;;;22.98;14.65;;;8.10;99.90;;;;;;7244096;32;20219;-82
2021/12/14 18:41:32;;;;;;;26.60;14.87;;;8.10;99.90;;;;;;7257676;32;21836;-82
2021/12/14 18:45:35;;;;;;;29.08;15.27;;;8.10;99.90;;;;;;7244769;32;20140;-81
2021/12/14 18:49:45;;;;;;;25.85;15.05;;;8.10;99.90;;;;;;7248423;32;20262;-81
2021/12/14 18:53:47;;;;;;;30.12;15.77;;;8.20;99.90;;;;;;7241194;32;20233;-81
2021/12/14 18:57:58;;;;;;;26.80;15.45;;;8.20;99.90;;;;;;7252940;32;20683;-83
2021/12/14 19:02:13;;;;;;;24.90;15.35;;;8.10;99.90;;;;;;7256944;32;20109;-82
2021/12/14 19:06:17;;;;;;;28.33;16.23;;;8.20;99.90;;;;;;7244982;32;20124;-82
2021/12/14 19:10:28;;;;;;;26.62;15.73;;;8.10;99.90;;;;;;7256501;32;20356;-81
2021/12/14 19:14:31;;;;;;;26.45;16.15;;;8.10;99.90;;;;;;7256903;32;20162;-81
2021/12/14 19:18:38;;;;;;;30.73;16.62;;;8.10;99.90;;;;;;7248333;32;20192;-82
2021/12/14 19:22:53;;;;;;;25.50;16.02;;;8.10;99.90;;;;;;7260592;32;20105;-84
2021/12/14 19:26:58;;;;;;;23.98;15.25;;;8.10;99.90;;;;;;7259989;32;20113;-83
2021/12/14 19:31:10;;;;;;;25.10;14.65;;;8.00;99.90;;;;;;7242791;32;20529;-83
2021/12/14 19:35:24;;;;;;;24.12;14.73;;;8.00;99.90;;;;;;7257029;32;20445;-83
2021/12/14 19:39:31;;;;;;;27.20;14.93;;;8.00;99.90;;;;;;7262508;32;20116;-83
2021/12/14 19:43:41;;;;;;;26.73;15.00;;;8.10;99.90;;;;;;7263154;32;20209;-83
2021/12/14 19:47:44;;;;;;;23.62;14.90;;;8.00;99.90;;;;;;7252614;32;20113;-82
2021/12/14 19:51:49;;;;;;;23.42;14.87;;;8.00;99.90;;;;;;7276281;32;20096;-80
2021/12/14 19:55:51;;;;;;;24.60;14.77;;;8.10;99.90;;;;;;7245566;32;20133;-83
2021/12/14 20:00:14;;;;;;;24.40;15.13;;;8.10;99.90;;;;;;7250892;32;20569;-82
2021/12/14 20:04:21;;;;;;;26.35;14.90;;;8.00;99.90;;;;;;7256093;32;20812;-82
2021/12/14 20:08:27;;;;;;;25.58;14.57;;;8.10;99.90;;;;;;7257747;32;20569;-83
2021/12/14 20:12:36;;;;;;;25.25;16.05;;;8.10;99.90;;;;;;7274528;32;21148;-81
2021/12/14 20:16:44;;;;;;;26.58;15.50;;;8.10;99.90;;;;;;7272995;32;20278;-80
2021/12/14 20:20:57;;;;;;;27.45;16.70;;;8.10;99.90;;;;;;7263475;32;20165;-80
2021/12/14 20:24:59;;;;;;;30.45;17.02;;;8.10;99.90;;;;;;7266328;32;20171;-79
2021/12/14 20:29:25;;;;;;;31.30;17.27;;;8.00;99.90;;;;;;7252038;32;20729;-79
2021/12/14 20:33:41;;;;;;;27.73;17.92;;;8.10;99.90;;;;;;7247395;32;20113;-82
2021/12/14 20:37:50;;;;;;;29.27;18.10;;;8.20;99.90;;;;;;7248488;32;20113;-82
2021/12/14 20:42:02;;;;;;;33.92;19.23;;;8.10;99.90;;;;;;7249478;32;20105;-84
2021/12/14 20:46:05;;;;;;;30.88;18.02;;;8.10;99.90;;;;;;7266361;32;20155;-84
2021/12/14 20:50:11;;;;;;;34.20;19.30;;;8.10;99.90;;;;;;7256537;32;20174;-83
2021/12/14 20:54:13;;;;;;;28.62;17.92;;;8.20;99.90;;;;;;7254099;32;20132;-81
2021/12/14 20:58:27;;;;;;;31.45;19.25;;;8.20;99.90;;;;;;7247856;32;20177;-81
2021/12/14 21:02:29;;;;;;;31.67;19.45;;;8.10;99.90;;;;;;7248049;32;20124;-80
2021/12/14 21:06:41;;;;;;;31.40;19.10;;;8.10;99.90;;;;;;7278887;32;20729;-81
2021/12/14 21:10:50;;;;;;;29.73;18.37;;;8.10;99.90;;;;;;7255864;32;20207;-83
2021/12/14 21:15:04;;;;;;;32.53;19.10;;;8.00;99.90;;;;;;7264191;32;20119;-80
2021/12/14 21:19:20;;;;;;;33.53;18.20;;;8.00;99.90;;;;;;7267609;32;20797;-84
2021/12/14 21:23:25;;;;;;;32.10;18.02;;;8.00;99.90;;;;;;7246875;32;20116;-83
2021/12/14 21:27:32;;;;;;;30.62;18.70;;;8.00;99.90;;;;;;7266453;32;20226;-83
2021/12/14 21:31:42;;;;;;;37.13;18.40;;;8.00;99.90;;;;;;7240099;32;20238;-82
2021/12/14 21:35:46;;;;;;;33.80;17.55;;;7.90;99.90;;;;;;7244652;32;20678;-81
2021/12/14 21:39:51;;;;;;;32.45;18.40;;;7.90;99.90;;;;;;7249371;32;20177;-83
2021/12/14 21:44:23;;;;;;;29.33;18.35;;;7.80;99.90;;;;;;7261342;32;20108;-80
2021/12/14 21:48:25;;;;;;;28.40;17.40;;;7.90;99.90;;;;;;7249445;32;20630;-80
2021/12/14 21:52:32;;;;;;;30.33;18.67;;;7.90;99.90;;;;;;7246353;32;20319;-81
2021/12/14 21:56:35;;;;;;;25.48;16.85;;;7.80;99.90;;;;;;7251027;32;20144;-81
2021/12/14 22:00:40;;;;;;;25.90;16.30;;;7.90;99.90;;;;;;7252096;32;20147;-82
2021/12/14 22:04:45;;;;;;;30.33;17.48;;;7.90;99.90;;;;;;7257838;32;20457;-82
2021/12/14 22:08:50;;;;;;;29.87;17.95;;;7.90;99.90;;;;;;7247274;32;20117;-79